Terminal Aerodrome Forecast
Issued by NWS Lake Charles, LA

Home | Current Version | Previous Version | Text Only | Print | Product List | Glossary On
Versions: 1 2 3 4 5 6 7 8 9 10 11 12 13 14 15 16 17 18 19
000
FTUS44 KLCH 160500
TAFLFT
TAF
KLFT 160520Z 1606/1706 VRB03KT P6SM SCT050 BKN250
      TEMPO 1609/1613 5SM BR
     FM161400 05005KT P6SM VCSH FEW025 SCT250
     FM161800 12006KT P6SM VCTS BKN040CB
     FM170200 VRB03KT P6SM BKN200=

USA.gov is the U.S. government's official web portal to all federal, state and local government web resources and services.